createdAt,value
2022-10-21T00:02:08.978Z,3.80
2022-10-21T00:04:40.540Z,3.80
2022-10-21T00:07:11.760Z,3.70
2022-10-21T00:09:43.160Z,3.70
2022-10-21T00:12:14.230Z,3.60
2022-10-21T00:14:45.718Z,3.50
2022-10-21T00:17:19.488Z,3.30
2022-10-21T00:19:50.983Z,3.20
2022-10-21T00:22:22.044Z,3.10
2022-10-21T00:24:53.391Z,3.10
2022-10-21T00:27:24.572Z,3.10
2022-10-21T00:29:56.101Z,3.10
2022-10-21T00:32:29.919Z,3.10
2022-10-21T00:35:01.735Z,3.10
2022-10-21T00:37:33.929Z,3.10
2022-10-21T00:40:05.557Z,3.10
2022-10-21T00:42:46.404Z,3.00
2022-10-21T00:45:23.561Z,3.00
2022-10-21T00:48:02.393Z,3.00
2022-10-21T00:50:42.418Z,3.00
2022-10-21T00:53:18.303Z,3.00
2022-10-21T00:55:53.289Z,3.00
2022-10-21T00:58:27.922Z,3.00
2022-10-21T01:01:01.981Z,3.00
2022-10-21T01:03:36.802Z,3.00
2022-10-21T01:06:11.841Z,2.90
2022-10-21T01:08:43.585Z,2.90
2022-10-21T01:11:17.291Z,2.80
2022-10-21T01:14:04.252Z,2.90
2022-10-21T01:16:47.262Z,2.80
2022-10-21T01:19:47.409Z,2.80
2022-10-21T01:22:28.525Z,2.80
2022-10-21T01:25:22.501Z,2.90
2022-10-21T01:28:01.538Z,2.80
2022-10-21T01:30:41.355Z,2.80
2022-10-21T01:33:38.616Z,2.70
2022-10-21T01:36:29.067Z,2.80
2022-10-21T01:39:11.942Z,2.80
2022-10-21T01:41:46.673Z,2.80
2022-10-21T01:44:24.086Z,2.80
2022-10-21T01:47:00.952Z,2.90
2022-10-21T01:49:36.268Z,2.90
2022-10-21T01:52:08.331Z,3.00
2022-10-21T01:54:44.046Z,2.90
2022-10-21T01:57:20.091Z,2.90
2022-10-21T01:59:52.644Z,2.80
2022-10-21T02:02:29.353Z,2.70
2022-10-21T02:05:04.098Z,2.70
2022-10-21T02:07:35.203Z,2.60
2022-10-21T02:10:07.710Z,2.60
2022-10-21T02:12:42.518Z,2.50
2022-10-21T02:15:16.314Z,2.50
2022-10-21T02:17:56.771Z,2.40
2022-10-21T02:20:31.571Z,2.40
2022-10-21T02:23:03.217Z,2.40
2022-10-21T02:25:39.365Z,2.50
2022-10-21T02:28:11.028Z,2.60
2022-10-21T02:30:50.223Z,2.50
2022-10-21T02:33:30.790Z,2.50
2022-10-21T02:36:10.846Z,2.40
2022-10-21T02:38:48.089Z,2.40
2022-10-21T02:41:23.596Z,2.50
2022-10-21T02:43:59.556Z,2.40
2022-10-21T02:46:38.705Z,2.30
2022-10-21T02:49:13.076Z,2.20
2022-10-21T02:51:45.501Z,2.10
2022-10-21T02:54:16.953Z,2.10
2022-10-21T02:56:48.447Z,2.20
2022-10-21T02:59:19.504Z,2.20
2022-10-21T03:01:50.893Z,2.20
2022-10-21T03:04:24.793Z,2.10
2022-10-21T03:06:56.387Z,2.10
2022-10-21T03:09:27.534Z,2.10
2022-10-21T03:11:59.026Z,2.10
2022-10-21T03:14:30.179Z,2.10
2022-10-21T03:17:01.601Z,2.10
2022-10-21T03:19:35.339Z,2.00
2022-10-21T03:22:06.757Z,2.10
2022-10-21T03:24:37.817Z,2.10
2022-10-21T03:27:09.226Z,2.10
2022-10-21T03:29:40.274Z,2.20
2022-10-21T03:32:11.719Z,2.20
2022-10-21T03:34:45.515Z,2.10
2022-10-21T03:37:16.988Z,2.10
2022-10-21T03:39:48.305Z,2.10
2022-10-21T03:42:19.657Z,2.00
2022-10-21T03:44:50.904Z,2.00
2022-10-21T03:47:22.213Z,1.90
2022-10-21T03:49:59.050Z,1.80
2022-10-21T03:52:30.453Z,1.80
2022-10-21T03:55:01.529Z,1.90
2022-10-21T03:57:32.943Z,1.90
2022-10-21T04:00:04.130Z,1.90
2022-10-21T04:02:43.801Z,1.90
2022-10-21T04:05:17.868Z,1.90
2022-10-21T04:07:52.954Z,1.90
2022-10-21T04:10:24.751Z,1.90
2022-10-21T04:12:56.126Z,1.90
2022-10-21T04:15:27.288Z,1.80
2022-10-21T04:17:58.646Z,1.90
2022-10-21T04:20:32.479Z,1.90
2022-10-21T04:23:04.187Z,1.90
2022-10-21T04:25:35.321Z,1.80
2022-10-21T04:28:06.975Z,1.80
2022-10-21T04:30:38.228Z,1.80
2022-10-21T04:33:09.538Z,1.80
2022-10-21T04:35:44.816Z,1.80
2022-10-21T04:38:16.233Z,1.80
2022-10-21T04:40:47.528Z,1.80
2022-10-21T04:43:18.911Z,1.90
2022-10-21T04:45:49.994Z,1.90
2022-10-21T04:48:21.353Z,1.90
2022-10-21T04:50:56.480Z,1.90
2022-10-21T04:53:27.915Z,1.90
2022-10-21T04:55:59.065Z,1.90
2022-10-21T04:58:30.455Z,1.90
2022-10-21T05:01:01.793Z,1.90
2022-10-21T05:03:33.226Z,2.00
2022-10-21T05:06:07.189Z,2.00
2022-10-21T05:08:38.760Z,2.00
2022-10-21T05:11:10.079Z,2.00
2022-10-21T05:13:41.550Z,2.00
2022-10-21T05:16:12.628Z,2.10
2022-10-21T05:18:44.054Z,2.10
2022-10-21T05:21:17.824Z,2.10
2022-10-21T05:23:49.313Z,2.10
2022-10-21T05:26:20.569Z,2.10
2022-10-21T05:28:52.078Z,2.10
2022-10-21T05:31:23.266Z,2.10
2022-10-21T05:33:54.792Z,2.20
2022-10-21T05:36:28.776Z,2.30
2022-10-21T05:39:00.220Z,2.30
2022-10-21T05:41:31.488Z,2.40
2022-10-21T05:44:02.844Z,2.60
2022-10-21T05:46:33.972Z,2.70
2022-10-21T05:49:05.364Z,2.70
2022-10-21T05:51:39.361Z,2.80
2022-10-21T05:54:10.746Z,2.80
2022-10-21T05:56:42.712Z,3.00
2022-10-21T05:59:14.488Z,3.10
2022-10-21T06:01:45.747Z,3.30
2022-10-21T06:04:17.313Z,3.40
2022-10-21T06:06:51.048Z,3.50
2022-10-21T06:09:22.485Z,3.60
2022-10-21T06:11:53.683Z,3.70
2022-10-21T06:14:25.084Z,3.70
2022-10-21T06:16:56.224Z,3.60
2022-10-21T06:19:27.678Z,3.70
2022-10-21T06:22:01.590Z,3.70
2022-10-21T06:24:33.270Z,3.70
2022-10-21T06:27:04.781Z,3.80
2022-10-21T06:29:36.238Z,3.90
2022-10-21T06:32:08.240Z,3.90
2022-10-21T06:34:39.608Z,3.90
2022-10-21T06:37:13.434Z,3.90
2022-10-21T06:39:44.916Z,3.90
2022-10-21T06:42:17.746Z,3.90
2022-10-21T06:44:53.523Z,4.00
2022-10-21T06:47:26.637Z,3.90
2022-10-21T06:49:58.002Z,4.00
2022-10-21T06:52:31.871Z,4.60
2022-10-21T06:55:03.261Z,5.30
2022-10-21T06:57:34.588Z,5.50
2022-10-21T07:00:06.765Z,6.20
2022-10-21T07:02:38.199Z,6.40
2022-10-21T07:05:10.734Z,6.50
2022-10-21T07:07:45.016Z,6.80
2022-10-21T07:10:16.622Z,7.20
2022-10-21T07:12:47.662Z,7.30
2022-10-21T07:15:19.168Z,7.30
2022-10-21T07:17:50.562Z,7.50
2022-10-21T07:20:22.051Z,7.60
2022-10-21T07:22:55.828Z,7.60
2022-10-21T07:25:27.232Z,7.50
2022-10-21T07:27:58.687Z,7.60
2022-10-21T07:30:31.833Z,7.90
2022-10-21T07:33:03.258Z,8.00
2022-10-21T07:35:34.727Z,7.90
2022-10-21T07:38:08.454Z,7.70
2022-10-21T07:40:43.116Z,7.40
2022-10-21T07:46:07.094Z,6.90
2022-10-21T07:48:38.423Z,6.90
2022-10-21T07:51:12.907Z,6.80
2022-10-21T07:53:46.818Z,6.80
2022-10-21T07:56:20.438Z,6.70
2022-10-21T07:58:51.796Z,6.90
2022-10-21T08:01:24.470Z,7.00
2022-10-21T08:03:57.418Z,6.90
2022-10-21T08:06:30.227Z,7.00
2022-10-21T08:09:04.606Z,7.30
2022-10-21T08:11:36.909Z,7.50
2022-10-21T08:14:10.424Z,7.60
2022-10-21T08:16:42.516Z,7.70
2022-10-21T08:19:21.389Z,7.70
2022-10-21T08:21:52.892Z,7.50
2022-10-21T08:24:27.156Z,7.80
2022-10-21T08:26:58.802Z,7.60
2022-10-21T08:29:29.951Z,7.70
2022-10-21T08:32:01.424Z,7.90
2022-10-21T08:34:32.655Z,7.80
2022-10-21T08:37:04.472Z,7.80
2022-10-21T08:39:38.283Z,7.90
2022-10-21T08:42:14.327Z,7.80
2022-10-21T08:44:51.853Z,7.80
2022-10-21T08:47:33.695Z,7.90
2022-10-21T08:50:07.972Z,8.00
2022-10-21T08:52:45.201Z,8.00
2022-10-21T08:55:27.004Z,8.00
2022-10-21T08:57:58.388Z,8.10
2022-10-21T09:00:35.449Z,8.30
2022-10-21T09:03:19.398Z,8.40
2022-10-21T09:06:04.553Z,8.60
2022-10-21T09:08:42.559Z,8.70
2022-10-21T09:11:26.228Z,8.70
2022-10-21T09:14:22.724Z,8.70
2022-10-21T09:17:00.400Z,8.60
2022-10-21T09:19:43.408Z,8.60
2022-10-21T09:22:36.062Z,8.50
2022-10-21T09:25:21.518Z,8.50
2022-10-21T09:27:57.536Z,8.40
2022-10-21T09:30:29.468Z,8.30
2022-10-21T09:33:03.158Z,8.30
2022-10-21T09:35:39.536Z,8.30
2022-10-21T09:38:18.421Z,8.40
2022-10-21T09:40:52.718Z,8.40
2022-10-21T09:43:29.682Z,8.40
2022-10-21T09:46:01.965Z,8.40
2022-10-21T09:49:00.922Z,8.30
2022-10-21T09:51:36.955Z,8.40
2022-10-21T09:54:12.534Z,8.40
2022-10-21T09:56:50.132Z,8.40
2022-10-21T09:59:29.104Z,8.50
2022-10-21T10:02:31.054Z,8.50
2022-10-21T10:05:05.615Z,8.70
2022-10-21T10:07:39.000Z,8.70
2022-10-21T10:10:32.921Z,8.80
2022-10-21T10:13:04.348Z,8.80
2022-10-21T10:15:40.329Z,8.90
2022-10-21T10:18:23.245Z,8.90
2022-10-21T10:21:08.053Z,8.90
2022-10-21T10:23:49.629Z,9.00
2022-10-21T10:26:24.481Z,9.00
2022-10-21T10:28:59.001Z,9.10
2022-10-21T10:31:35.819Z,9.10
2022-10-21T10:34:10.455Z,9.20
2022-10-21T10:36:43.636Z,9.30
2022-10-21T10:39:22.648Z,9.40
2022-10-21T10:41:55.767Z,9.40
2022-10-21T10:44:34.087Z,9.50
2022-10-21T10:47:10.344Z,9.60
2022-10-21T10:49:45.052Z,9.60
2022-10-21T10:52:23.131Z,9.70
2022-10-21T10:55:21.802Z,9.80
2022-10-21T10:58:09.738Z,9.80
2022-10-21T11:00:48.091Z,9.80
2022-10-21T11:03:26.454Z,9.80
2022-10-21T11:06:07.870Z,9.90
2022-10-21T11:08:44.912Z,9.90
2022-10-21T11:11:23.040Z,10.00
2022-10-21T11:13:55.259Z,10.10
2022-10-21T11:17:00.099Z,10.10
2022-10-21T11:19:50.588Z,10.20
2022-10-21T11:22:34.313Z,10.30
2022-10-21T11:25:15.671Z,10.40
2022-10-21T11:28:05.950Z,10.40
2022-10-21T11:30:46.913Z,10.40
2022-10-21T11:33:27.111Z,10.50
2022-10-21T11:36:08.727Z,10.50
2022-10-21T11:39:06.233Z,10.60
2022-10-21T11:41:41.835Z,10.70
2022-10-21T11:44:21.168Z,10.70
2022-10-21T11:47:02.851Z,10.80
2022-10-21T11:49:48.447Z,10.70
2022-10-21T11:52:33.987Z,10.80
2022-10-21T11:55:35.183Z,10.90
2022-10-21T11:58:20.392Z,11.00
2022-10-21T12:01:00.230Z,11.00
2022-10-21T12:03:52.967Z,11.10
2022-10-21T12:06:38.611Z,11.20
2022-10-21T12:09:18.649Z,11.20
2022-10-21T12:11:55.660Z,11.40
2022-10-21T12:14:31.561Z,11.50
2022-10-21T12:17:08.756Z,11.60
2022-10-21T12:19:40.244Z,11.60
2022-10-21T12:22:14.187Z,11.70
2022-10-21T12:24:55.674Z,11.70
2022-10-21T12:27:33.088Z,11.70
2022-10-21T12:30:14.521Z,11.60
2022-10-21T12:32:55.317Z,11.70
2022-10-21T12:35:30.883Z,11.70
2022-10-21T12:38:23.485Z,11.60
2022-10-21T12:41:28.240Z,11.40
2022-10-21T12:44:23.435Z,11.40
2022-10-21T12:46:57.595Z,11.50
2022-10-21T12:49:33.780Z,11.50
2022-10-21T12:52:13.161Z,11.50
2022-10-21T12:54:53.825Z,11.70
2022-10-21T12:57:32.032Z,11.70
2022-10-21T13:00:33.319Z,11.90
2022-10-21T13:03:08.029Z,12.00
2022-10-21T13:06:04.030Z,11.90
2022-10-21T13:08:43.067Z,12.10
2022-10-21T13:11:42.357Z,12.10
2022-10-21T13:14:36.144Z,12.00
2022-10-21T13:17:32.112Z,12.00
2022-10-21T13:20:35.700Z,12.10
2022-10-21T13:23:39.696Z,12.10
2022-10-21T13:26:24.413Z,11.90
2022-10-21T13:29:24.853Z,11.90
2022-10-21T13:32:31.927Z,12.00
2022-10-21T13:35:32.843Z,12.00
2022-10-21T13:38:20.993Z,12.00
2022-10-21T13:40:55.443Z,11.90
2022-10-21T13:43:29.132Z,11.80
2022-10-21T13:46:08.591Z,11.70
2022-10-21T13:48:41.420Z,11.80
2022-10-21T13:51:22.336Z,11.70
2022-10-21T13:53:57.867Z,11.70
2022-10-21T13:56:31.798Z,11.70
2022-10-21T13:59:04.044Z,11.60
2022-10-21T14:01:48.997Z,11.60
2022-10-21T14:04:23.375Z,11.60
2022-10-21T14:07:01.237Z,11.50
2022-10-21T14:09:36.286Z,11.70
2022-10-21T14:12:10.459Z,11.70
2022-10-21T14:14:42.720Z,11.70
2022-10-21T14:17:20.656Z,11.70
2022-10-21T14:19:55.087Z,11.80
2022-10-21T14:22:31.649Z,12.00
2022-10-21T14:25:04.728Z,12.00
2022-10-21T14:27:38.647Z,12.10
2022-10-21T14:30:11.966Z,12.10
2022-10-21T14:32:44.949Z,12.10
2022-10-21T14:35:28.272Z,12.20
2022-10-21T14:38:04.521Z,12.10
2022-10-21T14:40:39.809Z,12.10
2022-10-21T14:43:22.133Z,12.00
2022-10-21T14:45:56.060Z,12.00
2022-10-21T14:48:30.439Z,11.90
2022-10-21T14:51:04.113Z,11.90
2022-10-21T14:53:46.634Z,11.90
2022-10-21T14:56:21.529Z,11.80
2022-10-21T14:59:00.457Z,11.70
2022-10-21T15:01:32.261Z,11.60
2022-10-21T15:04:04.580Z,11.60
2022-10-21T15:06:37.330Z,11.50
2022-10-21T15:09:23.330Z,11.40
2022-10-21T15:11:54.558Z,11.30
2022-10-21T15:14:34.909Z,11.30
2022-10-21T15:17:12.793Z,11.20
2022-10-21T15:19:48.025Z,11.20
2022-10-21T15:22:27.831Z,11.20
2022-10-21T15:25:07.439Z,11.20
2022-10-21T15:27:43.956Z,11.10
2022-10-21T15:30:20.408Z,11.10
2022-10-21T15:32:53.156Z,11.10
2022-10-21T15:35:26.155Z,11.10
2022-10-21T15:37:57.933Z,11.10
2022-10-21T15:40:35.897Z,11.10
2022-10-21T15:43:07.736Z,11.10
2022-10-21T15:45:39.576Z,11.10
2022-10-21T15:48:13.464Z,11.10
2022-10-21T15:50:45.547Z,11.00
2022-10-21T15:53:17.204Z,11.00
2022-10-21T15:55:51.953Z,11.00
2022-10-21T15:58:23.650Z,11.00
2022-10-21T16:00:55.992Z,11.00
2022-10-21T16:03:29.618Z,11.00
2022-10-21T16:06:01.936Z,11.10
2022-10-21T16:08:34.042Z,11.20
2022-10-21T16:11:09.242Z,11.20
2022-10-21T16:13:40.944Z,11.20
2022-10-21T16:16:21.255Z,11.20
2022-10-21T16:18:53.003Z,11.20
2022-10-21T16:21:26.187Z,11.20
2022-10-21T16:23:58.775Z,11.20
2022-10-21T16:26:34.512Z,11.30
2022-10-21T16:29:08.253Z,11.30
2022-10-21T16:31:40.612Z,11.30
2022-10-21T16:34:12.711Z,11.30
2022-10-21T16:37:05.382Z,11.30
2022-10-21T16:39:37.155Z,11.30
2022-10-21T16:42:13.763Z,11.30
2022-10-21T16:44:50.143Z,11.30
2022-10-21T16:47:43.799Z,11.20
2022-10-21T16:50:23.198Z,11.30
2022-10-21T16:52:55.532Z,11.30
2022-10-21T16:55:27.480Z,11.20
2022-10-21T16:58:02.106Z,11.20
2022-10-21T17:00:34.481Z,11.20
2022-10-21T17:03:08.105Z,11.20
2022-10-21T17:05:40.451Z,11.10
2022-10-21T17:08:13.100Z,11.10
2022-10-21T17:10:44.941Z,11.10
2022-10-21T17:13:19.497Z,11.10
2022-10-21T17:15:51.764Z,11.10
2022-10-21T17:18:24.739Z,11.10
2022-10-21T17:20:56.853Z,11.10
2022-10-21T17:23:29.995Z,11.10
2022-10-21T17:26:02.787Z,11.10
2022-10-21T17:28:36.738Z,11.10
2022-10-21T17:31:08.884Z,11.10
2022-10-21T17:33:43.193Z,11.10
2022-10-21T17:36:35.773Z,11.10
2022-10-21T17:39:09.015Z,11.10
2022-10-21T17:42:01.570Z,11.10
2022-10-21T17:44:36.594Z,11.10
2022-10-21T17:47:09.968Z,11.10
2022-10-21T17:50:01.802Z,11.10
2022-10-21T17:52:33.951Z,11.10
2022-10-21T17:55:07.723Z,11.10
2022-10-21T17:57:42.131Z,11.00
2022-10-21T18:00:17.286Z,11.00
2022-10-21T18:02:49.692Z,11.10
2022-10-21T18:05:22.579Z,11.00
2022-10-21T18:07:54.979Z,11.00
2022-10-21T18:10:27.073Z,11.00
2022-10-21T18:12:59.043Z,11.00
2022-10-21T18:15:34.985Z,11.00
2022-10-21T18:18:09.577Z,10.90
2022-10-21T18:21:27.425Z,10.90
2022-10-21T18:23:59.754Z,10.90
2022-10-21T18:26:33.999Z,10.80
2022-10-21T18:29:07.888Z,10.80
2022-10-21T18:32:02.348Z,10.80
2022-10-21T18:34:57.392Z,10.80
2022-10-21T18:37:52.533Z,10.80
2022-10-21T18:40:28.775Z,10.80
2022-10-21T18:43:01.115Z,10.70
2022-10-21T18:45:33.508Z,10.70
2022-10-21T18:48:10.657Z,10.70
2022-10-21T18:50:43.235Z,10.70
2022-10-21T18:53:35.349Z,10.70
2022-10-21T18:56:10.398Z,10.70
2022-10-21T18:58:44.758Z,10.60
2022-10-21T19:01:19.255Z,10.60
2022-10-21T19:03:55.152Z,10.60
2022-10-21T19:06:36.323Z,10.50
2022-10-21T19:09:30.422Z,10.50
2022-10-21T19:12:04.080Z,10.50
2022-10-21T19:14:35.960Z,10.50
2022-10-21T19:17:08.324Z,10.50
2022-10-21T19:19:42.820Z,10.50
2022-10-21T19:22:17.566Z,10.40
2022-10-21T19:24:49.654Z,10.40
2022-10-21T19:27:22.363Z,10.40
2022-10-21T19:30:14.823Z,10.40
2022-10-21T19:32:47.479Z,10.40
2022-10-21T19:35:21.651Z,10.40
2022-10-21T19:38:00.499Z,10.40
2022-10-21T19:40:37.312Z,10.30
2022-10-21T19:43:09.698Z,10.30
2022-10-21T19:45:42.028Z,10.30
2022-10-21T19:48:16.327Z,10.20
2022-10-21T19:50:53.934Z,10.20
2022-10-21T19:53:26.284Z,10.20
2022-10-21T19:55:59.031Z,10.20
2022-10-21T19:58:31.312Z,10.20
2022-10-21T20:01:09.589Z,10.20
2022-10-21T20:04:02.711Z,10.10
2022-10-21T20:06:39.115Z,10.10
2022-10-21T20:09:36.425Z,10.10
2022-10-21T20:12:10.731Z,10.00
2022-10-21T20:14:42.975Z,10.00
2022-10-21T20:17:35.095Z,10.00
2022-10-21T20:20:10.314Z,10.00
2022-10-21T20:22:45.997Z,10.00
2022-10-21T20:25:18.627Z,10.00
2022-10-21T20:27:50.549Z,10.00
2022-10-21T20:30:22.733Z,9.90
2022-10-21T20:32:54.656Z,9.90
2022-10-21T20:35:26.878Z,9.80
2022-10-21T20:38:01.523Z,9.80
2022-10-21T20:40:33.455Z,9.80
2022-10-21T20:43:05.522Z,9.80
2022-10-21T20:45:37.324Z,9.80
2022-10-21T20:48:08.911Z,9.80
2022-10-21T20:50:40.888Z,9.80
2022-10-21T20:53:15.235Z,9.70
2022-10-21T20:55:55.910Z,9.70
2022-10-21T20:58:30.616Z,9.80
2022-10-21T21:01:02.730Z,9.80
2022-10-21T21:03:34.913Z,9.80
2022-10-21T21:06:06.232Z,9.90
2022-10-21T21:08:48.986Z,9.90
2022-10-21T21:11:29.763Z,9.90
2022-10-21T21:14:01.322Z,9.90
2022-10-21T21:16:33.375Z,9.90
2022-10-21T21:19:06.793Z,9.90
2022-10-21T21:21:39.653Z,9.90
2022-10-21T21:24:13.531Z,10.00
2022-10-21T21:26:45.134Z,10.00
2022-10-21T21:29:16.887Z,10.00
2022-10-21T21:31:48.446Z,10.10
2022-10-21T21:34:19.667Z,10.10
2022-10-21T21:36:51.528Z,10.10
2022-10-21T21:39:25.558Z,10.10
2022-10-21T21:41:57.342Z,10.10
2022-10-21T21:44:28.486Z,10.10
2022-10-21T21:46:59.995Z,10.10
2022-10-21T21:49:31.409Z,10.00
2022-10-21T21:52:03.319Z,10.00
2022-10-21T21:54:37.327Z,9.90
2022-10-21T21:57:27.735Z,9.90
2022-10-21T21:59:59.606Z,9.90
2022-10-21T22:02:31.016Z,9.80
2022-10-21T22:05:02.232Z,9.80
2022-10-21T22:07:33.718Z,9.80
2022-10-21T22:10:08.283Z,9.80
2022-10-21T22:12:40.685Z,9.70
2022-10-21T22:15:29.716Z,9.70
2022-10-21T22:18:06.932Z,9.70
2022-10-21T22:20:38.167Z,9.60
2022-10-21T22:23:10.902Z,9.50
2022-10-21T22:25:44.725Z,9.50
2022-10-21T22:28:16.200Z,9.50
2022-10-21T22:30:47.328Z,9.40
2022-10-21T22:33:19.148Z,9.40
2022-10-21T22:35:50.706Z,9.40
2022-10-21T22:38:22.679Z,9.40
2022-10-21T22:40:59.223Z,9.50
2022-10-21T22:43:32.569Z,9.50
2022-10-21T22:46:09.781Z,9.50
2022-10-21T22:48:54.468Z,9.50
2022-10-21T22:51:25.474Z,9.40
2022-10-21T22:53:57.028Z,9.40
2022-10-21T22:56:30.903Z,9.30
2022-10-21T22:59:02.752Z,9.30
2022-10-21T23:01:34.434Z,9.40
2022-10-21T23:04:06.606Z,9.40
2022-10-21T23:06:38.260Z,9.40
2022-10-21T23:09:09.836Z,9.30
2022-10-21T23:11:43.627Z,9.40
2022-10-21T23:14:15.044Z,9.30
2022-10-21T23:16:46.391Z,9.40
2022-10-21T23:19:18.283Z,9.40
2022-10-21T23:21:49.517Z,9.50
2022-10-21T23:24:20.971Z,9.50
2022-10-21T23:26:58.970Z,9.50
2022-10-21T23:29:32.870Z,9.50
2022-10-21T23:32:04.015Z,9.60
2022-10-21T23:34:35.565Z,9.60
2022-10-21T23:37:07.030Z,9.50
2022-10-21T23:39:38.625Z,9.60
2022-10-21T23:42:12.276Z,9.60
2022-10-21T23:44:43.690Z,9.60
2022-10-21T23:47:14.771Z,9.60
2022-10-21T23:49:46.231Z,9.70
2022-10-21T23:52:17.536Z,9.70
2022-10-21T23:54:48.974Z,9.70
2022-10-21T23:57:22.798Z,9.70
2022-10-21T23:59:54.285Z,9.70
